The Pas Airport
CYQD : now visible

Airfield :











YOU CAN JOIN US ON...

 
LOGIN :

Register | Disclaimer

   EN    FR    IT 

 









Legend :    VFR   Marginal VFR   IFR   Intensive IFR   Very Intensive IFR
Visi :
Ceiling :
>= 8 km
>= 3000ft
5 to 8 km
1000 to 3000 ft
1500m to 5 km
500 to 1000 ft
800 to 1500m
200 to 500 ft
< 800m
< 200 ft
Symbols :   Thunderstorms  Fog  Heavy snow  Heavy precipitations  Wind > 20 kt






- Airport Elevation : 887 ft
- IATA code : YQD


CYQD - The Pas

CURRENT METAR :
  • 231400Z AUTO 11007KT 9SM CLR M03/M09 A3008 RMK SLP200

EXPIRED METARs :
  • 231300Z AUTO 09008KT 9SM CLR M04/M10 A3006 RMK SLP196
  • 231200Z AUTO 08006KT 040V110 9SM CLR M05/M10 A3004 RMK SLP189
  • 231100Z AUTO 07006KT 9SM CLR M04/M10 A3002 RMK SLP180

TAF TAF CYQD
Valid from the 23 at 13:00 until the 24 at 01:00 UTC


231240Z 2313/2401 10010KT P6SM SKC RMK FCST BASED ON AUTO OBS. NXT FCST BY 231900Z
CZWG FIR / North America



MET'MAP, your aeronautical weather chart ! - Copyright ORBIFLY December 2007 - Disclaimer

ORBIFLY MET'MAP TEAM :

Programming & Development : Alexandra Zaïnal
Original concept : Baudouin d'Aumeries
Technical & hardware support : Manuel Goepfert
Assistance : Marc-Olivier Méhu




SOURCES & CREDITS :

   NOAA       Earth
Advisory